createdAt,value
2023-12-23T00:02:50.808Z,2.72
2023-12-23T00:07:49.890Z,2.35
2023-12-23T00:12:48.813Z,2.60
2023-12-23T00:17:50.566Z,2.35
2023-12-23T00:22:51.125Z,2.80
2023-12-23T00:27:50.049Z,2.88
2023-12-23T00:32:49.048Z,2.83
2023-12-23T00:37:48.091Z,2.17
2023-12-23T00:42:48.342Z,2.00
2023-12-23T00:47:47.139Z,2.40
2023-12-23T00:52:45.958Z,2.38
2023-12-23T00:57:44.743Z,2.35
2023-12-23T01:02:44.910Z,2.08
2023-12-23T01:07:44.077Z,2.55
2023-12-23T01:12:43.163Z,2.60
2023-12-23T01:17:42.062Z,2.83
2023-12-23T01:22:42.298Z,2.15
2023-12-23T01:27:41.151Z,2.47
2023-12-23T01:32:40.058Z,2.28
2023-12-23T01:37:38.918Z,2.65
2023-12-23T01:42:41.075Z,2.42
2023-12-23T01:47:42.942Z,2.42
2023-12-23T01:52:42.198Z,2.30
2023-12-23T01:57:43.549Z,2.70
2023-12-23T02:02:43.480Z,2.45
2023-12-23T02:07:43.907Z,2.40
2023-12-23T02:13:08.933Z,2.95
2023-12-23T02:18:12.267Z,2.72
2023-12-23T02:23:14.695Z,2.20
2023-12-23T02:28:16.932Z,1.95
2023-12-23T02:33:16.048Z,1.83
2023-12-23T02:38:16.582Z,1.65
2023-12-23T02:43:15.399Z,1.83
2023-12-23T02:48:14.925Z,1.77
2023-12-23T02:53:15.142Z,1.67
2023-12-23T02:58:13.885Z,1.85
2023-12-23T03:03:12.824Z,1.88
2023-12-23T03:08:13.233Z,1.83
2023-12-23T03:13:13.461Z,2.08
2023-12-23T03:18:12.304Z,3.35
2023-12-23T03:23:11.108Z,2.00
2023-12-23T03:28:10.729Z,2.03
2023-12-23T03:33:11.857Z,2.35
2023-12-23T03:38:10.747Z,2.42
2023-12-23T03:43:09.499Z,1.98
2023-12-23T03:48:09.297Z,1.95
2023-12-23T03:53:09.976Z,1.90
2023-12-23T03:58:08.893Z,2.00
2023-12-23T04:03:08.051Z,2.33
2023-12-23T04:08:07.900Z,2.70
2023-12-23T04:13:10.332Z,3.30
2023-12-23T04:18:09.414Z,2.97
2023-12-23T04:23:08.445Z,2.60
2023-12-23T04:28:09.257Z,2.90
2023-12-23T04:33:09.220Z,2.33
2023-12-23T04:38:09.028Z,1.65
2023-12-23T04:43:09.333Z,2.40
2023-12-23T04:48:09.279Z,2.33
2023-12-23T04:53:08.820Z,1.50
2023-12-23T04:58:09.461Z,1.80
2023-12-23T05:03:08.386Z,1.73
2023-12-23T05:08:08.002Z,2.80
2023-12-23T05:13:06.849Z,1.80
2023-12-23T05:18:07.684Z,1.90
2023-12-23T05:23:06.583Z,2.20
2023-12-23T05:28:06.878Z,2.40
2023-12-23T05:33:07.391Z,1.90
2023-12-23T05:38:06.396Z,1.90
2023-12-23T05:43:05.675Z,1.83
2023-12-23T05:48:06.011Z,1.52
2023-12-23T05:53:06.517Z,3.67
2023-12-23T05:58:05.617Z,3.13
2023-12-23T06:03:04.507Z,3.60
2023-12-23T06:08:03.752Z,3.60
2023-12-23T06:13:03.933Z,2.92
2023-12-23T06:18:03.895Z,2.72
2023-12-23T06:23:02.752Z,4.30
2023-12-23T06:28:01.643Z,10.43
2023-12-23T06:33:01.973Z,16.77
2023-12-23T06:38:01.045Z,9.35
2023-12-23T06:43:00.053Z,7.85
2023-12-23T06:47:59.136Z,5.00
2023-12-23T06:52:59.459Z,4.10
2023-12-23T06:57:58.578Z,3.65
2023-12-23T07:02:57.355Z,9.23
2023-12-23T07:07:56.147Z,6.25
2023-12-23T07:12:56.843Z,5.85
2023-12-23T07:17:56.100Z,6.03
2023-12-23T07:22:54.989Z,6.35
2023-12-23T07:27:53.867Z,7.10
2023-12-23T07:32:54.315Z,5.97
2023-12-23T07:37:53.635Z,4.45
2023-12-23T07:42:52.796Z,2.00
2023-12-23T07:47:53.285Z,1.90
2023-12-23T07:52:52.445Z,6.07
2023-12-23T07:57:51.462Z,2.28
2023-12-23T08:02:51.344Z,3.38
2023-12-23T08:07:51.673Z,2.45
2023-12-23T08:12:50.848Z,3.80
2023-12-23T08:17:51.040Z,7.20
2023-12-23T08:22:51.617Z,3.08
2023-12-23T08:27:50.672Z,2.55
2023-12-23T08:32:49.827Z,3.22
2023-12-23T08:37:49.124Z,2.95
2023-12-23T08:42:49.813Z,4.03
2023-12-23T08:47:49.339Z,3.90
2023-12-23T08:52:48.686Z,4.18
2023-12-23T08:57:47.660Z,3.65
2023-12-23T09:02:48.050Z,2.90
2023-12-23T09:07:46.972Z,2.58
2023-12-23T09:12:45.769Z,2.83
2023-12-23T09:17:44.635Z,1.83
2023-12-23T09:22:46.387Z,2.92
2023-12-23T09:27:46.394Z,2.00
2023-12-23T09:32:45.416Z,2.92
2023-12-23T09:37:46.782Z,2.30
2023-12-23T09:42:46.027Z,2.20
2023-12-23T09:47:45.007Z,2.97
2023-12-23T09:52:46.414Z,2.80
2023-12-23T09:57:45.231Z,2.42
2023-12-23T10:02:44.087Z,3.03
2023-12-23T10:07:42.934Z,2.15
2023-12-23T10:12:43.152Z,2.15
2023-12-23T10:17:41.995Z,2.20
2023-12-23T10:22:44.018Z,1.70
2023-12-23T10:27:45.331Z,1.90
2023-12-23T10:32:49.208Z,1.38
2023-12-23T10:37:51.554Z,1.70
2023-12-23T10:42:53.251Z,2.00
2023-12-23T10:47:54.972Z,1.30
2023-12-23T10:52:56.234Z,1.63
2023-12-23T10:57:58.872Z,1.70
2023-12-23T11:03:00.339Z,1.52
2023-12-23T11:08:07.395Z,1.20
2023-12-23T11:13:14.701Z,1.00
2023-12-23T11:18:13.761Z,3.30
2023-12-23T11:23:33.933Z,1.23
2023-12-23T11:28:38.625Z,0.88
2023-12-23T11:33:38.393Z,1.10
2023-12-23T11:38:52.845Z,0.70
2023-12-23T11:43:54.666Z,0.82
2023-12-23T11:48:53.547Z,0.70
2023-12-23T11:53:53.160Z,0.50
2023-12-23T11:58:53.764Z,0.60
2023-12-23T12:03:52.594Z,0.68
2023-12-23T12:08:51.424Z,0.88
2023-12-23T12:13:50.400Z,0.50
2023-12-23T12:18:52.589Z,1.80
2023-12-23T12:23:51.575Z,0.50
2023-12-23T12:28:52.714Z,0.90
2023-12-23T12:33:53.021Z,0.60
2023-12-23T12:38:52.180Z,0.50
2023-12-23T12:43:51.770Z,0.55
2023-12-23T12:48:52.477Z,0.30
2023-12-23T12:53:51.289Z,0.50
2023-12-23T12:58:52.026Z,0.85
2023-12-23T13:03:52.663Z,0.90
2023-12-23T13:08:51.487Z,0.60
2023-12-23T13:13:50.516Z,2.92
2023-12-23T13:18:56.723Z,0.60
2023-12-23T13:24:00.380Z,0.70
2023-12-23T13:28:59.204Z,0.73
2023-12-23T13:33:58.065Z,0.85
2023-12-23T13:38:56.881Z,1.10
2023-12-23T13:43:57.204Z,1.00
2023-12-23T13:48:56.161Z,1.45
2023-12-23T13:53:55.769Z,1.67
2023-12-23T13:58:54.580Z,1.15
2023-12-23T14:03:54.762Z,1.83
2023-12-23T14:08:54.268Z,2.00
2023-12-23T14:13:53.136Z,2.13
2023-12-23T14:18:52.058Z,2.53
2023-12-23T14:23:52.380Z,2.20
2023-12-23T14:28:51.240Z,2.70
2023-12-23T14:33:52.934Z,1.00
2023-12-23T14:38:53.154Z,1.30
2023-12-23T14:43:52.000Z,1.85
2023-12-23T14:48:51.374Z,3.15
2023-12-23T14:53:50.179Z,1.73
2023-12-23T14:58:52.725Z,0.85
2023-12-23T15:03:52.954Z,2.00
2023-12-23T15:08:51.842Z,1.40
2023-12-23T15:13:52.054Z,2.10
2023-12-23T15:18:52.217Z,2.45
2023-12-23T15:23:52.500Z,2.13
2023-12-23T15:28:52.909Z,2.13
2023-12-23T15:33:52.651Z,1.60
2023-12-23T15:38:51.508Z,2.90
2023-12-23T15:43:50.333Z,1.60
2023-12-23T15:48:50.630Z,3.13
2023-12-23T15:53:49.982Z,1.50
2023-12-23T15:58:48.949Z,1.30
2023-12-23T16:03:47.918Z,3.20
2023-12-23T16:08:48.165Z,2.17
2023-12-23T16:13:49.178Z,1.55
2023-12-23T16:18:48.947Z,2.20
2023-12-23T16:23:49.349Z,2.53
2023-12-23T16:28:48.388Z,1.80
2023-12-23T16:33:47.314Z,1.38
2023-12-23T16:38:46.140Z,1.58
2023-12-23T16:43:46.800Z,1.50
2023-12-23T16:48:46.422Z,1.58
2023-12-23T16:53:45.453Z,1.83
2023-12-23T16:58:44.502Z,1.23
2023-12-23T17:03:44.846Z,2.63
2023-12-23T17:08:43.723Z,2.03
2023-12-23T17:13:42.487Z,5.13
2023-12-23T17:18:41.492Z,3.63
2023-12-23T17:23:41.861Z,3.72
2023-12-23T17:28:41.158Z,3.72
2023-12-23T17:33:40.361Z,3.40
2023-12-23T17:38:41.942Z,3.25
2023-12-23T17:43:42.206Z,10.57
2023-12-23T17:48:41.013Z,2.13
2023-12-23T17:53:40.192Z,2.35
2023-12-23T17:58:42.056Z,1.35
2023-12-23T18:03:43.542Z,2.88
2023-12-23T18:08:42.770Z,2.97
2023-12-23T18:13:41.589Z,2.75
2023-12-23T18:18:40.622Z,3.85
2023-12-23T18:23:41.238Z,4.10
2023-12-23T18:28:40.324Z,2.78
2023-12-23T18:33:39.370Z,4.38
2023-12-23T18:38:38.209Z,3.30
2023-12-23T18:43:38.408Z,4.72
2023-12-23T18:48:37.206Z,2.92
2023-12-23T18:53:36.109Z,2.78
2023-12-23T18:58:39.285Z,2.65
2023-12-23T19:04:00.686Z,3.63
2023-12-23T19:09:12.852Z,3.63
2023-12-23T19:14:17.853Z,3.03
2023-12-23T19:25:14.278Z,1.80
2023-12-23T19:30:14.096Z,2.88
2023-12-23T19:35:17.143Z,2.63
2023-12-23T19:40:17.270Z,2.50
2023-12-23T19:45:17.562Z,3.20
2023-12-23T19:50:34.791Z,3.40
2023-12-23T19:55:33.897Z,2.88
2023-12-23T20:00:40.077Z,5.20
2023-12-23T20:05:48.344Z,3.85
2023-12-23T20:10:55.450Z,4.55
2023-12-23T20:15:55.542Z,2.95
2023-12-23T20:20:58.877Z,3.17
2023-12-23T20:25:57.686Z,2.85
2023-12-23T20:30:58.904Z,2.22
2023-12-23T20:36:01.035Z,3.28
2023-12-23T20:41:06.545Z,2.55
2023-12-23T20:46:05.891Z,2.10
2023-12-23T20:51:09.413Z,2.03
2023-12-23T21:01:09.556Z,2.28
2023-12-23T21:06:10.390Z,2.20
2023-12-23T21:11:09.768Z,2.63
2023-12-23T21:16:14.372Z,2.42
2023-12-23T21:21:14.779Z,2.40
2023-12-23T21:26:22.976Z,2.25
2023-12-23T21:31:21.958Z,2.30
2023-12-23T21:36:22.209Z,1.88
2023-12-23T21:41:20.951Z,3.03
2023-12-23T21:46:19.783Z,2.42
2023-12-23T21:51:18.668Z,2.50
2023-12-23T21:56:18.927Z,2.38
2023-12-23T22:01:18.927Z,2.25
2023-12-23T22:06:19.932Z,2.88
2023-12-23T22:11:20.211Z,1.75
2023-12-23T22:16:19.121Z,1.58
2023-12-23T22:21:17.954Z,1.60
2023-12-23T22:26:18.378Z,1.55
2023-12-23T22:31:18.697Z,1.30
2023-12-23T22:36:18.444Z,1.67
2023-12-23T22:41:17.440Z,1.92
2023-12-23T22:46:16.312Z,2.00
2023-12-23T22:51:16.481Z,2.15
2023-12-23T22:56:15.302Z,3.20
2023-12-23T23:01:16.123Z,2.78
2023-12-23T23:06:16.441Z,1.63
2023-12-23T23:11:15.283Z,1.63
2023-12-23T23:16:14.066Z,1.85
2023-12-23T23:21:12.860Z,2.05
2023-12-23T23:26:13.480Z,1.75
2023-12-23T23:31:13.907Z,2.30
2023-12-23T23:36:16.651Z,1.48
2023-12-23T23:41:16.893Z,1.53
2023-12-23T23:46:16.999Z,2.25
2023-12-23T23:51:19.204Z,1.58
2023-12-23T23:56:21.036Z,2.63
